sensor_id;sensor_type;location;lat;lon;timestamp;P1;durP1;ratioP1;P2;durP2;ratioP2
50717;SDS011;60557;51.350;12.410;2023-04-25T00:00:07;5.50;;;3.35;;
50717;SDS011;60557;51.350;12.410;2023-04-25T00:02:33;11.43;;;3.58;;
50717;SDS011;60557;51.350;12.410;2023-04-25T00:05:00;6.47;;;3.63;;
50717;SDS011;60557;51.350;12.410;2023-04-25T00:07:26;7.25;;;4.40;;
50717;SDS011;60557;51.350;12.410;2023-04-25T00:09:52;7.15;;;3.63;;
50717;SDS011;60557;51.350;12.410;2023-04-25T00:12:18;5.80;;;3.38;;
50717;SDS011;60557;51.350;12.410;2023-04-25T00:14:48;11.75;;;4.03;;
50717;SDS011;60557;51.350;12.410;2023-04-25T00:17:15;6.55;;;3.13;;
50717;SDS011;60557;51.350;12.410;2023-04-25T00:19:42;7.43;;;3.65;;
50717;SDS011;60557;51.350;12.410;2023-04-25T00:22:09;7.00;;;4.05;;
50717;SDS011;60557;51.350;12.410;2023-04-25T00:24:36;5.95;;;3.33;;
50717;SDS011;60557;51.350;12.410;2023-04-25T00:27:03;8.40;;;3.38;;
50717;SDS011;60557;51.350;12.410;2023-04-25T00:29:29;11.70;;;3.53;;
50717;SDS011;60557;51.350;12.410;2023-04-25T00:31:57;6.97;;;3.42;;
50717;SDS011;60557;51.350;12.410;2023-04-25T00:34:23;7.85;;;3.90;;
50717;SDS011;60557;51.350;12.410;2023-04-25T00:36:49;6.72;;;2.70;;
50717;SDS011;60557;51.350;12.410;2023-04-25T00:39:15;7.28;;;3.50;;
50717;SDS011;60557;51.350;12.410;2023-04-25T00:41:41;5.57;;;3.38;;
50717;SDS011;60557;51.350;12.410;2023-04-25T00:44:08;6.55;;;3.65;;
50717;SDS011;60557;51.350;12.410;2023-04-25T00:46:36;9.88;;;3.90;;
50717;SDS011;60557;51.350;12.410;2023-04-25T00:49:02;7.53;;;3.47;;
50717;SDS011;60557;51.350;12.410;2023-04-25T00:51:33;9.95;;;3.80;;
50717;SDS011;60557;51.350;12.410;2023-04-25T00:53:59;8.43;;;3.67;;
50717;SDS011;60557;51.350;12.410;2023-04-25T00:56:26;6.10;;;3.85;;
50717;SDS011;60557;51.350;12.410;2023-04-25T00:58:53;8.25;;;3.25;;
50717;SDS011;60557;51.350;12.410;2023-04-25T01:01:21;7.57;;;4.10;;
50717;SDS011;60557;51.350;12.410;2023-04-25T01:03:48;6.53;;;3.58;;
50717;SDS011;60557;51.350;12.410;2023-04-25T01:06:16;8.05;;;3.95;;
50717;SDS011;60557;51.350;12.410;2023-04-25T01:08:42;7.05;;;4.47;;
50717;SDS011;60557;51.350;12.410;2023-04-25T01:11:08;7.38;;;4.20;;
50717;SDS011;60557;51.350;12.410;2023-04-25T01:13:36;7.97;;;3.85;;
50717;SDS011;60557;51.350;12.410;2023-04-25T01:16:02;8.25;;;4.03;;
50717;SDS011;60557;51.350;12.410;2023-04-25T01:18:29;7.20;;;4.47;;
50717;SDS011;60557;51.350;12.410;2023-04-25T01:20:55;5.88;;;3.28;;
50717;SDS011;60557;51.350;12.410;2023-04-25T01:23:21;7.43;;;3.97;;
50717;SDS011;60557;51.350;12.410;2023-04-25T01:25:48;8.57;;;3.80;;
50717;SDS011;60557;51.350;12.410;2023-04-25T01:28:17;11.25;;;3.67;;
50717;SDS011;60557;51.350;12.410;2023-04-25T01:30:43;5.80;;;3.67;;
50717;SDS011;60557;51.350;12.410;2023-04-25T01:33:11;5.85;;;3.13;;
50717;SDS011;60557;51.350;12.410;2023-04-25T01:35:39;5.88;;;2.75;;
50717;SDS011;60557;51.350;12.410;2023-04-25T01:38:05;6.85;;;4.85;;
50717;SDS011;60557;51.350;12.410;2023-04-25T01:40:31;5.30;;;3.30;;
50717;SDS011;60557;51.350;12.410;2023-04-25T01:42:59;4.43;;;3.03;;
50717;SDS011;60557;51.350;12.410;2023-04-25T01:45:25;6.95;;;3.45;;
50717;SDS011;60557;51.350;12.410;2023-04-25T01:47:51;8.55;;;3.72;;
50717;SDS011;60557;51.350;12.410;2023-04-25T01:50:18;5.32;;;2.83;;
50717;SDS011;60557;51.350;12.410;2023-04-25T01:52:45;3.92;;;2.22;;
50717;SDS011;60557;51.350;12.410;2023-04-25T01:55:11;6.30;;;3.03;;
50717;SDS011;60557;51.350;12.410;2023-04-25T01:57:37;6.20;;;3.15;;
50717;SDS011;60557;51.350;12.410;2023-04-25T02:00:04;3.65;;;2.40;;
50717;SDS011;60557;51.350;12.410;2023-04-25T02:02:34;8.52;;;3.10;;
50717;SDS011;60557;51.350;12.410;2023-04-25T02:05:00;4.72;;;2.38;;
50717;SDS011;60557;51.350;12.410;2023-04-25T02:07:26;6.03;;;3.13;;
50717;SDS011;60557;51.350;12.410;2023-04-25T02:09:52;5.35;;;2.92;;
50717;SDS011;60557;51.350;12.410;2023-04-25T02:12:18;7.65;;;3.17;;
50717;SDS011;60557;51.350;12.410;2023-04-25T02:14:44;6.50;;;3.00;;
50717;SDS011;60557;51.350;12.410;2023-04-25T02:17:10;8.77;;;3.17;;
50717;SDS011;60557;51.350;12.410;2023-04-25T02:19:37;7.25;;;3.78;;
50717;SDS011;60557;51.350;12.410;2023-04-25T02:22:04;6.85;;;3.35;;
50717;SDS011;60557;51.350;12.410;2023-04-25T02:24:32;11.18;;;4.00;;
50717;SDS011;60557;51.350;12.410;2023-04-25T02:26:59;8.90;;;2.25;;
50717;SDS011;60557;51.350;12.410;2023-04-25T02:29:26;7.20;;;2.97;;
50717;SDS011;60557;51.350;12.410;2023-04-25T02:31:52;6.03;;;3.28;;
50717;SDS011;60557;51.350;12.410;2023-04-25T02:34:20;6.18;;;3.90;;
50717;SDS011;60557;51.350;12.410;2023-04-25T02:36:49;13.57;;;4.25;;
50717;SDS011;60557;51.350;12.410;2023-04-25T02:39:20;7.32;;;3.45;;
50717;SDS011;60557;51.350;12.410;2023-04-25T02:41:47;6.95;;;3.45;;
50717;SDS011;60557;51.350;12.410;2023-04-25T02:44:15;8.63;;;3.60;;
50717;SDS011;60557;51.350;12.410;2023-04-25T02:46:41;6.15;;;3.40;;
50717;SDS011;60557;51.350;12.410;2023-04-25T02:49:10;6.05;;;3.90;;
50717;SDS011;60557;51.350;12.410;2023-04-25T02:51:38;6.82;;;4.00;;
50717;SDS011;60557;51.350;12.410;2023-04-25T02:54:07;13.77;;;4.65;;
50717;SDS011;60557;51.350;12.410;2023-04-25T02:56:33;8.38;;;3.50;;
50717;SDS011;60557;51.350;12.410;2023-04-25T02:58:59;7.35;;;3.22;;
50717;SDS011;60557;51.350;12.410;2023-04-25T03:01:25;13.02;;;3.33;;
50717;SDS011;60557;51.350;12.410;2023-04-25T03:03:53;7.95;;;3.45;;
50717;SDS011;60557;51.350;12.410;2023-04-25T03:06:19;6.47;;;3.67;;
50717;SDS011;60557;51.350;12.410;2023-04-25T03:08:45;10.55;;;3.97;;
50717;SDS011;60557;51.350;12.410;2023-04-25T03:11:14;5.68;;;3.47;;
50717;SDS011;60557;51.350;12.410;2023-04-25T03:13:40;8.40;;;3.90;;
50717;SDS011;60557;51.350;12.410;2023-04-25T03:16:06;11.27;;;4.25;;
50717;SDS011;60557;51.350;12.410;2023-04-25T03:18:32;9.30;;;4.95;;
50717;SDS011;60557;51.350;12.410;2023-04-25T03:20:58;9.10;;;3.70;;
50717;SDS011;60557;51.350;12.410;2023-04-25T03:23:24;11.45;;;4.70;;
50717;SDS011;60557;51.350;12.410;2023-04-25T03:25:51;12.52;;;5.20;;
50717;SDS011;60557;51.350;12.410;2023-04-25T03:28:17;7.32;;;4.60;;
50717;SDS011;60557;51.350;12.410;2023-04-25T03:30:43;5.30;;;3.63;;
50717;SDS011;60557;51.350;12.410;2023-04-25T03:33:09;9.13;;;4.40;;
50717;SDS011;60557;51.350;12.410;2023-04-25T03:35:38;7.65;;;4.47;;
50717;SDS011;60557;51.350;12.410;2023-04-25T03:38:04;8.65;;;3.90;;
50717;SDS011;60557;51.350;12.410;2023-04-25T03:40:30;12.00;;;4.43;;
50717;SDS011;60557;51.350;12.410;2023-04-25T03:42:56;6.57;;;3.70;;
50717;SDS011;60557;51.350;12.410;2023-04-25T03:45:22;15.45;;;4.35;;
50717;SDS011;60557;51.350;12.410;2023-04-25T03:47:48;8.95;;;3.92;;
50717;SDS011;60557;51.350;12.410;2023-04-25T03:50:16;7.45;;;3.33;;
50717;SDS011;60557;51.350;12.410;2023-04-25T03:52:43;10.25;;;4.20;;
50717;SDS011;60557;51.350;12.410;2023-04-25T03:55:09;8.57;;;4.18;;
50717;SDS011;60557;51.350;12.410;2023-04-25T03:57:35;10.57;;;4.35;;
50717;SDS011;60557;51.350;12.410;2023-04-25T04:00:01;8.52;;;4.53;;
50717;SDS011;60557;51.350;12.410;2023-04-25T04:02:28;6.45;;;3.28;;
50717;SDS011;60557;51.350;12.410;2023-04-25T04:04:55;7.47;;;3.15;;
50717;SDS011;60557;51.350;12.410;2023-04-25T04:07:24;11.02;;;4.95;;
50717;SDS011;60557;51.350;12.410;2023-04-25T04:09:50;7.93;;;3.90;;
50717;SDS011;60557;51.350;12.410;2023-04-25T04:12:16;16.88;;;4.93;;
50717;SDS011;60557;51.350;12.410;2023-04-25T04:14:42;8.13;;;4.32;;
50717;SDS011;60557;51.350;12.410;2023-04-25T04:17:08;12.93;;;4.25;;
50717;SDS011;60557;51.350;12.410;2023-04-25T04:19:34;8.32;;;3.97;;
50717;SDS011;60557;51.350;12.410;2023-04-25T04:22:03;11.43;;;4.85;;
50717;SDS011;60557;51.350;12.410;2023-04-25T04:24:29;6.68;;;4.47;;
50717;SDS011;60557;51.350;12.410;2023-04-25T04:26:55;13.23;;;5.40;;
50717;SDS011;60557;51.350;12.410;2023-04-25T04:29:21;10.32;;;4.68;;
50717;SDS011;60557;51.350;12.410;2023-04-25T04:31:48;8.23;;;3.35;;
50717;SDS011;60557;51.350;12.410;2023-04-25T04:34:15;10.63;;;4.30;;
50717;SDS011;60557;51.350;12.410;2023-04-25T04:36:44;10.45;;;4.88;;
50717;SDS011;60557;51.350;12.410;2023-04-25T04:39:13;8.32;;;5.10;;
50717;SDS011;60557;51.350;12.410;2023-04-25T04:41:39;14.82;;;5.22;;
50717;SDS011;60557;51.350;12.410;2023-04-25T04:44:06;8.05;;;4.82;;
50717;SDS011;60557;51.350;12.410;2023-04-25T04:46:33;11.45;;;4.80;;
50717;SDS011;60557;51.350;12.410;2023-04-25T04:49:09;18.02;;;5.53;;
50717;SDS011;60557;51.350;12.410;2023-04-25T04:51:35;8.93;;;5.07;;
50717;SDS011;60557;51.350;12.410;2023-04-25T04:54:02;17.33;;;7.10;;
50717;SDS011;60557;51.350;12.410;2023-04-25T04:56:28;17.45;;;5.55;;
50717;SDS011;60557;51.350;12.410;2023-04-25T04:58:56;15.70;;;5.00;;
50717;SDS011;60557;51.350;12.410;2023-04-25T05:01:22;8.60;;;4.55;;
50717;SDS011;60557;51.350;12.410;2023-04-25T05:03:48;12.15;;;4.75;;
50717;SDS011;60557;51.350;12.410;2023-04-25T05:06:16;11.45;;;5.25;;
50717;SDS011;60557;51.350;12.410;2023-04-25T05:08:44;13.43;;;7.13;;
50717;SDS011;60557;51.350;12.410;2023-04-25T05:11:10;7.53;;;4.05;;
50717;SDS011;60557;51.350;12.410;2023-04-25T05:13:37;11.88;;;3.97;;
50717;SDS011;60557;51.350;12.410;2023-04-25T05:16:03;7.68;;;4.22;;
50717;SDS011;60557;51.350;12.410;2023-04-25T05:18:31;10.93;;;5.07;;
50717;SDS011;60557;51.350;12.410;2023-04-25T05:20:57;10.60;;;5.45;;
50717;SDS011;60557;51.350;12.410;2023-04-25T05:23:23;10.27;;;4.70;;
50717;SDS011;60557;51.350;12.410;2023-04-25T05:25:50;9.50;;;4.80;;
50717;SDS011;60557;51.350;12.410;2023-04-25T05:28:18;9.57;;;4.20;;
50717;SDS011;60557;51.350;12.410;2023-04-25T05:30:45;8.18;;;4.30;;
50717;SDS011;60557;51.350;12.410;2023-04-25T05:33:11;9.63;;;4.10;;
50717;SDS011;60557;51.350;12.410;2023-04-25T05:35:37;12.65;;;4.38;;
50717;SDS011;60557;51.350;12.410;2023-04-25T05:38:03;10.60;;;5.60;;
50717;SDS011;60557;51.350;12.410;2023-04-25T05:40:29;10.65;;;4.40;;
50717;SDS011;60557;51.350;12.410;2023-04-25T05:42:55;23.58;;;7.38;;
50717;SDS011;60557;51.350;12.410;2023-04-25T05:45:24;14.30;;;5.60;;
50717;SDS011;60557;51.350;12.410;2023-04-25T05:47:50;12.07;;;5.00;;
50717;SDS011;60557;51.350;12.410;2023-04-25T05:50:18;21.35;;;5.75;;
50717;SDS011;60557;51.350;12.410;2023-04-25T05:52:45;7.95;;;5.30;;
50717;SDS011;60557;51.350;12.410;2023-04-25T05:55:11;9.48;;;4.57;;
50717;SDS011;60557;51.350;12.410;2023-04-25T05:57:37;9.63;;;3.72;;
50717;SDS011;60557;51.350;12.410;2023-04-25T06:00:06;8.25;;;4.78;;
50717;SDS011;60557;51.350;12.410;2023-04-25T06:02:34;9.05;;;3.15;;
50717;SDS011;60557;51.350;12.410;2023-04-25T06:05:00;12.95;;;4.68;;
50717;SDS011;60557;51.350;12.410;2023-04-25T06:07:28;7.93;;;4.38;;
50717;SDS011;60557;51.350;12.410;2023-04-25T06:09:55;9.90;;;4.10;;
50717;SDS011;60557;51.350;12.410;2023-04-25T06:12:23;11.52;;;4.88;;
50717;SDS011;60557;51.350;12.410;2023-04-25T06:14:49;8.90;;;3.97;;
50717;SDS011;60557;51.350;12.410;2023-04-25T06:17:15;13.27;;;3.95;;
50717;SDS011;60557;51.350;12.410;2023-04-25T06:19:41;7.75;;;4.45;;
50717;SDS011;60557;51.350;12.410;2023-04-25T06:22:08;14.35;;;4.13;;
50717;SDS011;60557;51.350;12.410;2023-04-25T06:24:34;11.25;;;4.55;;
50717;SDS011;60557;51.350;12.410;2023-04-25T06:27:00;7.57;;;3.25;;
50717;SDS011;60557;51.350;12.410;2023-04-25T06:29:29;10.23;;;4.97;;
50717;SDS011;60557;51.350;12.410;2023-04-25T06:31:55;8.38;;;4.55;;
50717;SDS011;60557;51.350;12.410;2023-04-25T06:34:22;14.48;;;3.97;;
50717;SDS011;60557;51.350;12.410;2023-04-25T06:36:50;9.07;;;3.88;;
50717;SDS011;60557;51.350;12.410;2023-04-25T06:39:16;8.63;;;5.03;;
50717;SDS011;60557;51.350;12.410;2023-04-25T06:41:45;10.95;;;4.50;;
50717;SDS011;60557;51.350;12.410;2023-04-25T06:44:13;10.90;;;4.40;;
50717;SDS011;60557;51.350;12.410;2023-04-25T06:46:42;9.25;;;3.97;;
50717;SDS011;60557;51.350;12.410;2023-04-25T06:49:08;8.98;;;3.83;;
50717;SDS011;60557;51.350;12.410;2023-04-25T06:51:34;6.55;;;3.22;;
50717;SDS011;60557;51.350;12.410;2023-04-25T06:54:02;11.77;;;3.53;;
50717;SDS011;60557;51.350;12.410;2023-04-25T06:56:30;7.18;;;3.13;;
50717;SDS011;60557;51.350;12.410;2023-04-25T06:58:56;10.70;;;4.45;;
50717;SDS011;60557;51.350;12.410;2023-04-25T07:01:22;11.20;;;5.60;;
50717;SDS011;60557;51.350;12.410;2023-04-25T07:03:48;11.93;;;4.03;;
50717;SDS011;60557;51.350;12.410;2023-04-25T07:06:14;11.13;;;3.88;;
50717;SDS011;60557;51.350;12.410;2023-04-25T07:08:40;9.32;;;4.07;;
50717;SDS011;60557;51.350;12.410;2023-04-25T07:11:06;13.20;;;4.07;;
50717;SDS011;60557;51.350;12.410;2023-04-25T07:13:32;5.32;;;2.90;;
50717;SDS011;60557;51.350;12.410;2023-04-25T07:15:59;9.73;;;4.20;;
50717;SDS011;60557;51.350;12.410;2023-04-25T07:18:25;11.88;;;3.78;;
50717;SDS011;60557;51.350;12.410;2023-04-25T07:20:51;10.35;;;4.32;;
50717;SDS011;60557;51.350;12.410;2023-04-25T07:23:17;12.88;;;4.60;;
50717;SDS011;60557;51.350;12.410;2023-04-25T07:25:43;10.13;;;4.53;;
50717;SDS011;60557;51.350;12.410;2023-04-25T07:28:10;15.10;;;4.13;;
50717;SDS011;60557;51.350;12.410;2023-04-25T07:30:36;12.98;;;4.95;;
50717;SDS011;60557;51.350;12.410;2023-04-25T07:33:02;18.45;;;5.80;;
50717;SDS011;60557;51.350;12.410;2023-04-25T07:35:28;8.73;;;4.45;;
50717;SDS011;60557;51.350;12.410;2023-04-25T07:37:54;10.07;;;4.40;;
50717;SDS011;60557;51.350;12.410;2023-04-25T07:40:23;7.85;;;4.18;;
50717;SDS011;60557;51.350;12.410;2023-04-25T07:42:49;11.00;;;4.32;;
50717;SDS011;60557;51.350;12.410;2023-04-25T07:45:16;7.65;;;3.90;;
50717;SDS011;60557;51.350;12.410;2023-04-25T07:47:42;8.40;;;4.07;;
50717;SDS011;60557;51.350;12.410;2023-04-25T07:50:10;9.93;;;5.43;;
50717;SDS011;60557;51.350;12.410;2023-04-25T07:52:36;11.77;;;5.03;;
50717;SDS011;60557;51.350;12.410;2023-04-25T07:55:02;5.60;;;4.20;;
50717;SDS011;60557;51.350;12.410;2023-04-25T07:57:29;13.70;;;4.75;;
50717;SDS011;60557;51.350;12.410;2023-04-25T07:59:55;5.60;;;3.00;;
50717;SDS011;60557;51.350;12.410;2023-04-25T08:02:21;10.90;;;4.65;;
50717;SDS011;60557;51.350;12.410;2023-04-25T08:04:47;10.93;;;4.55;;
50717;SDS011;60557;51.350;12.410;2023-04-25T08:07:14;8.77;;;4.00;;
50717;SDS011;60557;51.350;12.410;2023-04-25T08:09:43;8.07;;;3.25;;
50717;SDS011;60557;51.350;12.410;2023-04-25T08:12:09;8.05;;;2.63;;
50717;SDS011;60557;51.350;12.410;2023-04-25T08:14:37;11.13;;;2.22;;
50717;SDS011;60557;51.350;12.410;2023-04-25T08:17:07;9.35;;;1.92;;
50717;SDS011;60557;51.350;12.410;2023-04-25T08:19:33;8.40;;;2.70;;
50717;SDS011;60557;51.350;12.410;2023-04-25T08:21:59;7.28;;;1.80;;
50717;SDS011;60557;51.350;12.410;2023-04-25T08:24:27;8.38;;;1.98;;
50717;SDS011;60557;51.350;12.410;2023-04-25T08:26:53;9.15;;;2.17;;
50717;SDS011;60557;51.350;12.410;2023-04-25T08:29:20;6.25;;;2.00;;
50717;SDS011;60557;51.350;12.410;2023-04-25T08:31:48;8.57;;;1.95;;
50717;SDS011;60557;51.350;12.410;2023-04-25T08:34:15;6.55;;;1.50;;
50717;SDS011;60557;51.350;12.410;2023-04-25T08:36:44;9.85;;;3.50;;
50717;SDS011;60557;51.350;12.410;2023-04-25T08:39:13;8.88;;;1.70;;
50717;SDS011;60557;51.350;12.410;2023-04-25T08:41:40;13.63;;;2.40;;
50717;SDS011;60557;51.350;12.410;2023-04-25T08:44:06;5.68;;;1.52;;
50717;SDS011;60557;51.350;12.410;2023-04-25T08:46:37;9.20;;;2.42;;
50717;SDS011;60557;51.350;12.410;2023-04-25T08:49:05;8.52;;;2.83;;
50717;SDS011;60557;51.350;12.410;2023-04-25T08:51:31;10.73;;;2.15;;
50717;SDS011;60557;51.350;12.410;2023-04-25T08:54:06;17.25;;;3.03;;
50717;SDS011;60557;51.350;12.410;2023-04-25T08:56:38;7.53;;;1.38;;
50717;SDS011;60557;51.350;12.410;2023-04-25T08:59:06;11.23;;;3.13;;
50717;SDS011;60557;51.350;12.410;2023-04-25T09:01:36;10.90;;;3.05;;
50717;SDS011;60557;51.350;12.410;2023-04-25T09:04:02;13.60;;;2.45;;
50717;SDS011;60557;51.350;12.410;2023-04-25T09:06:31;8.20;;;2.28;;
50717;SDS011;60557;51.350;12.410;2023-04-25T09:09:05;11.98;;;2.03;;
50717;SDS011;60557;51.350;12.410;2023-04-25T09:11:35;15.23;;;3.70;;
50717;SDS011;60557;51.350;12.410;2023-04-25T09:14:17;10.85;;;2.67;;
50717;SDS011;60557;51.350;12.410;2023-04-25T09:19:36;12.43;;;2.10;;
50717;SDS011;60557;51.350;12.410;2023-04-25T09:22:05;19.15;;;2.63;;
50717;SDS011;60557;51.350;12.410;2023-04-25T09:24:37;10.00;;;2.38;;
50717;SDS011;60557;51.350;12.410;2023-04-25T09:27:05;9.23;;;2.88;;
50717;SDS011;60557;51.350;12.410;2023-04-25T09:29:31;11.70;;;2.63;;
50717;SDS011;60557;51.350;12.410;2023-04-25T09:32:11;19.05;;;3.42;;
50717;SDS011;60557;51.350;12.410;2023-04-25T09:34:40;10.02;;;2.35;;
50717;SDS011;60557;51.350;12.410;2023-04-25T09:37:08;13.05;;;2.20;;
50717;SDS011;60557;51.350;12.410;2023-04-25T09:39:35;11.88;;;2.95;;
50717;SDS011;60557;51.350;12.410;2023-04-25T09:42:04;6.55;;;1.98;;
50717;SDS011;60557;51.350;12.410;2023-04-25T09:44:31;13.80;;;3.05;;
50717;SDS011;60557;51.350;12.410;2023-04-25T09:46:57;11.75;;;3.45;;
50717;SDS011;60557;51.350;12.410;2023-04-25T09:49:24;17.83;;;2.95;;
50717;SDS011;60557;51.350;12.410;2023-04-25T09:51:55;17.88;;;3.13;;
50717;SDS011;60557;51.350;12.410;2023-04-25T09:54:22;12.25;;;2.60;;
50717;SDS011;60557;51.350;12.410;2023-04-25T09:56:49;11.52;;;2.65;;
50717;SDS011;60557;51.350;12.410;2023-04-25T09:59:19;13.50;;;2.25;;
50717;SDS011;60557;51.350;12.410;2023-04-25T10:01:48;7.57;;;2.40;;
50717;SDS011;60557;51.350;12.410;2023-04-25T10:04:20;14.18;;;2.65;;
50717;SDS011;60557;51.350;12.410;2023-04-25T10:06:48;21.23;;;4.00;;
50717;SDS011;60557;51.350;12.410;2023-04-25T10:09:14;9.75;;;2.63;;
50717;SDS011;60557;51.350;12.410;2023-04-25T10:11:44;16.63;;;3.35;;
50717;SDS011;60557;51.350;12.410;2023-04-25T10:14:13;14.60;;;2.65;;
50717;SDS011;60557;51.350;12.410;2023-04-25T10:16:39;12.13;;;3.05;;
50717;SDS011;60557;51.350;12.410;2023-04-25T10:19:07;13.10;;;3.47;;
50717;SDS011;60557;51.350;12.410;2023-04-25T10:21:33;13.35;;;2.50;;
50717;SDS011;60557;51.350;12.410;2023-04-25T10:23:59;14.27;;;3.10;;
50717;SDS011;60557;51.350;12.410;2023-04-25T10:26:28;14.07;;;3.80;;
50717;SDS011;60557;51.350;12.410;2023-04-25T10:28:58;25.25;;;8.50;;
50717;SDS011;60557;51.350;12.410;2023-04-25T10:31:24;20.50;;;3.25;;
50717;SDS011;60557;51.350;12.410;2023-04-25T10:33:50;18.88;;;2.72;;
50717;SDS011;60557;51.350;12.410;2023-04-25T10:36:22;15.32;;;3.42;;
50717;SDS011;60557;51.350;12.410;2023-04-25T10:38:50;13.80;;;4.18;;
50717;SDS011;60557;51.350;12.410;2023-04-25T10:41:20;14.98;;;3.78;;
50717;SDS011;60557;51.350;12.410;2023-04-25T10:43:49;13.00;;;3.03;;
50717;SDS011;60557;51.350;12.410;2023-04-25T10:48:48;17.33;;;3.88;;
50717;SDS011;60557;51.350;12.410;2023-04-25T10:51:23;5.50;;;2.50;;
50717;SDS011;60557;51.350;12.410;2023-04-25T10:56:22;11.40;;;4.13;;
50717;SDS011;60557;51.350;12.410;2023-04-25T10:58:49;10.60;;;2.92;;
50717;SDS011;60557;51.350;12.410;2023-04-25T11:01:15;18.63;;;2.72;;
50717;SDS011;60557;51.350;12.410;2023-04-25T11:03:45;7.70;;;2.78;;
50717;SDS011;60557;51.350;12.410;2023-04-25T11:09:02;13.43;;;4.28;;
50717;SDS011;60557;51.350;12.410;2023-04-25T11:11:30;13.35;;;4.13;;
50717;SDS011;60557;51.350;12.410;2023-04-25T11:13:56;14.35;;;4.78;;
50717;SDS011;60557;51.350;12.410;2023-04-25T11:16:26;13.32;;;3.85;;
50717;SDS011;60557;51.350;12.410;2023-04-25T11:18:52;16.45;;;4.38;;
50717;SDS011;60557;51.350;12.410;2023-04-25T11:21:18;10.80;;;2.70;;
50717;SDS011;60557;51.350;12.410;2023-04-25T11:23:45;13.07;;;3.08;;
50717;SDS011;60557;51.350;12.410;2023-04-25T11:26:12;19.20;;;4.57;;
50717;SDS011;60557;51.350;12.410;2023-04-25T11:28:40;17.35;;;3.88;;
50717;SDS011;60557;51.350;12.410;2023-04-25T11:31:08;16.02;;;4.68;;
50717;SDS011;60557;51.350;12.410;2023-04-25T11:33:35;12.68;;;3.70;;
50717;SDS011;60557;51.350;12.410;2023-04-25T11:36:01;10.90;;;3.42;;
50717;SDS011;60557;51.350;12.410;2023-04-25T11:38:27;16.42;;;3.80;;
50717;SDS011;60557;51.350;12.410;2023-04-25T11:40:54;13.27;;;3.13;;
50717;SDS011;60557;51.350;12.410;2023-04-25T11:43:22;13.13;;;2.97;;
50717;SDS011;60557;51.350;12.410;2023-04-25T11:45:49;9.88;;;2.67;;
50717;SDS011;60557;51.350;12.410;2023-04-25T11:48:16;9.23;;;2.35;;
50717;SDS011;60557;51.350;12.410;2023-04-25T11:50:42;10.10;;;2.70;;
50717;SDS011;60557;51.350;12.410;2023-04-25T11:53:08;9.15;;;2.28;;
50717;SDS011;60557;51.350;12.410;2023-04-25T11:55:35;15.00;;;4.38;;
50717;SDS011;60557;51.350;12.410;2023-04-25T11:58:01;15.25;;;2.25;;
50717;SDS011;60557;51.350;12.410;2023-04-25T12:00:30;11.63;;;1.90;;
50717;SDS011;60557;51.350;12.410;2023-04-25T12:02:59;10.00;;;2.30;;
50717;SDS011;60557;51.350;12.410;2023-04-25T12:05:29;13.35;;;2.97;;
50717;SDS011;60557;51.350;12.410;2023-04-25T12:07:55;13.65;;;2.25;;
50717;SDS011;60557;51.350;12.410;2023-04-25T12:10:21;15.98;;;4.03;;
50717;SDS011;60557;51.350;12.410;2023-04-25T12:12:50;6.82;;;1.65;;
50717;SDS011;60557;51.350;12.410;2023-04-25T12:15:25;11.25;;;2.33;;
50717;SDS011;60557;51.350;12.410;2023-04-25T12:17:52;10.55;;;2.50;;
50717;SDS011;60557;51.350;12.410;2023-04-25T12:20:20;8.25;;;3.05;;
50717;SDS011;60557;51.350;12.410;2023-04-25T12:22:48;11.07;;;2.15;;
50717;SDS011;60557;51.350;12.410;2023-04-25T12:33:20;13.85;;;2.35;;
50717;SDS011;60557;51.350;12.410;2023-04-25T12:35:49;7.20;;;1.75;;
50717;SDS011;60557;51.350;12.410;2023-04-25T12:38:21;11.10;;;2.42;;
50717;SDS011;60557;51.350;12.410;2023-04-25T12:40:49;12.02;;;2.63;;
50717;SDS011;60557;51.350;12.410;2023-04-25T12:43:15;10.73;;;2.08;;
50717;SDS011;60557;51.350;12.410;2023-04-25T12:45:42;14.65;;;4.20;;
50717;SDS011;60557;51.350;12.410;2023-04-25T12:48:08;13.82;;;3.58;;
50717;SDS011;60557;51.350;12.410;2023-04-25T12:50:43;8.82;;;1.55;;
50717;SDS011;60557;51.350;12.410;2023-04-25T12:53:09;11.65;;;2.05;;
50717;SDS011;60557;51.350;12.410;2023-04-25T12:55:36;12.63;;;2.53;;
50717;SDS011;60557;51.350;12.410;2023-04-25T12:58:02;6.53;;;1.45;;
50717;SDS011;60557;51.350;12.410;2023-04-25T13:00:29;5.18;;;1.30;;
50717;SDS011;60557;51.350;12.410;2023-04-25T13:02:55;9.63;;;1.70;;
50717;SDS011;60557;51.350;12.410;2023-04-25T13:05:21;5.70;;;1.80;;
50717;SDS011;60557;51.350;12.410;2023-04-25T13:07:50;6.30;;;1.73;;
50717;SDS011;60557;51.350;12.410;2023-04-25T13:10:16;7.18;;;1.20;;
50717;SDS011;60557;51.350;12.410;2023-04-25T13:12:45;6.57;;;1.35;;
50717;SDS011;60557;51.350;12.410;2023-04-25T13:15:11;3.97;;;1.35;;
50717;SDS011;60557;51.350;12.410;2023-04-25T13:17:38;12.85;;;2.10;;
50717;SDS011;60557;51.350;12.410;2023-04-25T13:20:05;5.22;;;1.65;;
50717;SDS011;60557;51.350;12.410;2023-04-25T13:22:38;8.40;;;0.90;;
50717;SDS011;60557;51.350;12.410;2023-04-25T13:25:05;5.03;;;1.65;;
50717;SDS011;60557;51.350;12.410;2023-04-25T13:27:31;7.93;;;2.00;;
50717;SDS011;60557;51.350;12.410;2023-04-25T13:29:59;8.77;;;2.80;;
50717;SDS011;60557;51.350;12.410;2023-04-25T13:32:26;9.88;;;1.17;;
50717;SDS011;60557;51.350;12.410;2023-04-25T13:34:55;5.82;;;1.70;;
50717;SDS011;60557;51.350;12.410;2023-04-25T13:37:21;10.95;;;2.90;;
50717;SDS011;60557;51.350;12.410;2023-04-25T13:39:49;7.88;;;1.40;;
50717;SDS011;60557;51.350;12.410;2023-04-25T13:42:15;9.15;;;2.95;;
50717;SDS011;60557;51.350;12.410;2023-04-25T13:44:42;4.95;;;1.55;;
50717;SDS011;60557;51.350;12.410;2023-04-25T13:47:18;9.90;;;1.58;;
50717;SDS011;60557;51.350;12.410;2023-04-25T13:49:44;7.10;;;1.80;;
50717;SDS011;60557;51.350;12.410;2023-04-25T13:52:13;16.25;;;1.90;;
50717;SDS011;60557;51.350;12.410;2023-04-25T13:54:58;11.52;;;2.40;;
50717;SDS011;60557;51.350;12.410;2023-04-25T13:57:34;15.65;;;3.50;;
50717;SDS011;60557;51.350;12.410;2023-04-25T14:00:06;4.00;;;2.67;;
50717;SDS011;60557;51.350;12.410;2023-04-25T14:02:37;5.07;;;1.30;;
50717;SDS011;60557;51.350;12.410;2023-04-25T14:05:03;7.25;;;1.63;;
50717;SDS011;60557;51.350;12.410;2023-04-25T14:07:29;16.08;;;3.53;;
50717;SDS011;60557;51.350;12.410;2023-04-25T14:09:56;8.13;;;1.80;;
50717;SDS011;60557;51.350;12.410;2023-04-25T14:12:25;11.07;;;2.88;;
50717;SDS011;60557;51.350;12.410;2023-04-25T14:14:58;4.15;;;1.10;;
50717;SDS011;60557;51.350;12.410;2023-04-25T14:17:25;4.90;;;1.17;;
50717;SDS011;60557;51.350;12.410;2023-04-25T14:19:53;12.90;;;1.98;;
50717;SDS011;60557;51.350;12.410;2023-04-25T14:22:19;9.18;;;1.60;;
50717;SDS011;60557;51.350;12.410;2023-04-25T14:24:46;6.05;;;1.90;;
50717;SDS011;60557;51.350;12.410;2023-04-25T14:27:12;6.40;;;1.63;;
50717;SDS011;60557;51.350;12.410;2023-04-25T14:29:38;7.78;;;1.67;;
50717;SDS011;60557;51.350;12.410;2023-04-25T14:32:06;5.75;;;1.40;;
50717;SDS011;60557;51.350;12.410;2023-04-25T14:34:32;8.52;;;1.55;;
50717;SDS011;60557;51.350;12.410;2023-04-25T14:36:59;6.63;;;1.95;;
50717;SDS011;60557;51.350;12.410;2023-04-25T14:39:25;5.63;;;1.70;;
50717;SDS011;60557;51.350;12.410;2023-04-25T14:41:51;6.75;;;1.63;;
50717;SDS011;60557;51.350;12.410;2023-04-25T14:44:17;8.48;;;1.70;;
50717;SDS011;60557;51.350;12.410;2023-04-25T14:46:45;3.08;;;1.08;;